Lady Dida — 9HB2098 — position and weather

sailwx.info

Track history (hours):
 
Tides and Currents Weather Stations Pressure Air Temp Water Temp Dewpoint Dewpoint Depression Visibility Wind Speed Wind Dir Waves Ship Positions

Lady Dida

Last reported at 2017-Oct-22 14:39 UTC. Time now 2017-Oct-22 15:41 UTC.
Position N 37°49' E 023°47'.

; draft 2.5 m.

Type: Other ship. MMSI: 248882000.

Date/timePositionNaut miles runAvg speedWind from/ knotsBaromVisibWave heightAir tempDewpointWater temp
2017-Oct-22 14:39N 37°49' E 023°47'0 0.0
2017-Oct-22 14:09N 37°48' E 023°47'0 0.1
2017-Oct-22 13:57N 37°49' E 023°47'0 0.0
2017-Oct-22 13:09N 37°48' E 023°47'0 0.0
2017-Oct-22 13:00N 37°48' E 023°47'0 0.0
2017-Oct-22 12:09N 37°48' E 023°47'0 0.0
2017-Oct-22 11:57N 37°48' E 023°47'0 0.0
2017-Oct-22 10:57N 37°48' E 023°47'0 0.0
2017-Oct-22 09:54N 37°48' E 023°47'0 0.0
2017-Oct-22 09:30N 37°48' E 023°47'0 0.0
2017-Oct-22 09:00N 37°48' E 023°47'0 0.0
2017-Oct-22 08:09N 37°48' E 023°47'0 0.0
2017-Oct-22 06:45N 37°48' E 023°47'0 0.0
2017-Oct-22 06:21N 37°48' E 023°47'0 0.0
2017-Oct-22 05:54N 37°48' E 023°47'0 0.0
2017-Oct-22 05:15N 37°48' E 023°47'0 0.0
2017-Oct-22 04:57N 37°48' E 023°47'0 0.0
2017-Oct-22 04:15N 37°48' E 023°47'0 0.0
2017-Oct-22 04:00N 37°48' E 023°47'0 0.0
2017-Oct-22 03:27N 37°48' E 023°47'0 0.0
2017-Oct-22 02:45N 37°48' E 023°47'0 0.0
2017-Oct-22 02:21N 37°48' E 023°47'0 0.0
2017-Oct-22 01:51N 37°48' E 023°47'0 0.0
2017-Oct-22 01:30N 37°48' E 023°47'0 0.0
2017-Oct-21 17:18N 37°48' E 023°47'0 0.0
2017-Oct-21 16:54N 37°48' E 023°47'0 0.0
2017-Oct-21 16:24N 37°48' E 023°47'0 0.0
2017-Oct-21 15:42N 37°48' E 023°47'0 0.0
2017-Oct-21 15:12N 37°48' E 023°47'0 0.0
2017-Oct-21 14:42N 37°48' E 023°47'0 0.0
2017-Oct-21 14:27N 37°48' E 023°47'0 0.0
2017-Oct-21 13:27N 37°48' E 023°47'0 0.0
2017-Oct-21 12:57N 37°48' E 023°47'0 0.0
2017-Oct-21 12:27N 37°48' E 023°47'0 0.0
2017-Oct-21 11:45N 37°48' E 023°47'0 0.0
2017-Oct-21 10:39N 37°48' E 023°47'0 0.0
2017-Oct-21 10:15N 37°48' E 023°47'0 0.0
2017-Oct-21 08:06N 37°48' E 023°47'0 0.0
2017-Oct-21 06:30N 37°48' E 023°47'0 0.0
2017-Oct-21 06:00N 37°48' E 023°47'0 0.0
2017-Oct-21 05:15N 37°48' E 023°47'0 0.0
2017-Oct-21 04:06N 37°48' E 023°47'0 0.0
2017-Oct-21 04:00N 37°48' E 023°47'0 0.0
2017-Oct-21 03:15N 37°48' E 023°47'0 0.0
2017-Oct-21 03:00N 37°48' E 023°47'0 0.0
2017-Oct-21 02:27N 37°48' E 023°47'0 0.0
2017-Oct-21 01:57N 37°48' E 023°47'0 0.0
2017-Oct-21 00:54N 37°48' E 023°47'0 0.0
2017-Oct-21 00:30N 37°48' E 023°47'0 0.0
2017-Oct-20 21:27N 37°48' E 023°47'0 0.0
2017-Oct-20 19:00N 37°48' E 023°47'0 0.0
2017-Oct-20 17:51N 37°48' E 023°47'0 0.0
2017-Oct-20 17:27N 37°48' E 023°47'0 0.0
2017-Oct-20 16:12N 37°49' E 023°47'0 0.0
2017-Oct-20 15:48N 37°49' E 023°47'0 0.0
2017-Oct-20 15:30N 37°49' E 023°47'0 0.0
2017-Oct-20 14:51N 37°49' E 023°47'0 0.0
2017-Oct-20 13:57N 37°49' E 023°47'0 0.0
2017-Oct-20 11:52N 37°48' E 023°47'2 4.6
2017-Oct-20 11:30N 37°47' E 023°45'4 8.8
2017-Oct-20 11:01N 37°45' E 023°41'4 8.9
2017-Oct-20 10:31N 37°43' E 023°36'7 7.9
2017-Oct-20 09:37N 37°41' E 023°27'1 7.7
2017-Oct-20 09:31N 37°42' E 023°27'1 0.1
2017-Oct-19 15:44N 37°43' E 023°27'2 7.2
2017-Oct-19 15:31N 37°44' E 023°25'1 1.0
2017-Oct-19 14:57N 37°44' E 023°26'0 0.0
2017-Oct-19 14:27N 37°44' E 023°26'0 0.0
2017-Oct-19 13:54N 37°44' E 023°26'0 0.0
2017-Oct-19 13:24N 37°44' E 023°26'0 0.1
2017-Oct-19 12:59N 37°44' E 023°26'3 5.0
2017-Oct-19 12:27N 37°42' E 023°27'3 6.9
2017-Oct-19 11:58N 37°41' E 023°31'4 8.2
2017-Oct-19 11:30N 37°42' E 023°35'4 8.4
2017-Oct-19 11:00N 37°45' E 023°39'4 8.4
2017-Oct-19 10:30N 37°46' E 023°44'3 5.3
2017-Oct-19 10:00N 37°48' E 023°47'  
2017-Oct-14 15:50N 37°48' E 023°47'0 0.0
2017-Oct-14 12:26N 37°48' E 023°47'0 0.1
2017-Oct-14 11:56N 37°48' E 023°47'0 0.0
2017-Oct-14 11:08N 37°48' E 023°47'0 0.0
2017-Oct-14 10:02N 37°48' E 023°47'0 0.0
2017-Oct-13 16:03N 37°48' E 023°47'0 1.7
2017-Oct-13 16:00N 37°48' E 023°47'0 0.0
2017-Oct-13 15:13N 37°48' E 023°47'0 0.0
2017-Oct-13 13:40N 37°48' E 023°47'0 0.0
2017-Oct-13 13:25N 37°48' E 023°47'0 0.0
2017-Oct-13 12:07N 37°48' E 023°47'0 0.1
2017-Oct-13 11:55N 37°48' E 023°47'0 0.0
2017-Oct-13 10:43N 37°48' E 023°47'0 0.0
2017-Oct-13 10:28N 37°48' E 023°47'0 0.0
2017-Oct-13 08:43N 37°48' E 023°47'0 0.0
2017-Oct-13 08:28N 37°48' E 023°47'0 0.0
2017-Oct-13 07:58N 37°48' E 023°47'0 0.0
2017-Oct-13 06:28N 37°48' E 023°47'0 0.0
2017-Oct-13 05:46N 37°48' E 023°47'0 0.0
2017-Oct-13 05:22N 37°48' E 023°47'0 0.0
2017-Oct-13 04:58N 37°48' E 023°47'0 0.0
2017-Oct-13 04:22N 37°48' E 023°47'0 0.0
2017-Oct-13 03:34N 37°48' E 023°47'0 0.0
2017-Oct-13 03:28N 37°48' E 023°47'0 0.0
2017-Oct-13 02:28N 37°48' E 023°47'0 0.0
2017-Oct-13 01:49N 37°48' E 023°47'0 0.0
2017-Oct-13 01:28N 37°48' E 023°47'0 0.0
2017-Oct-13 00:49N 37°48' E 023°47'0 0.0
2017-Oct-12 23:49N 37°48' E 023°47'0 0.0
2017-Oct-12 23:28N 37°48' E 023°47'0 0.0
2017-Oct-12 21:34N 37°48' E 023°47'0 0.0
2017-Oct-12 19:07N 37°48' E 023°47'0 0.0
2017-Oct-12 18:58N 37°48' E 023°47'0 0.0
2017-Oct-12 17:37N 37°48' E 023°47'0 0.0
2017-Oct-12 17:25N 37°48' E 023°47'0 0.0
2017-Oct-12 15:49N 37°48' E 023°47'  
Track history (hours):
 
Tides and Currents Weather Stations Pressure Air Temp Water Temp Dewpoint Dewpoint Depression Visibility Wind Speed Wind Dir Waves Ship Positions

Lady Dida

Last reported at 2017-Oct-22 14:39 UTC. Time now 2017-Oct-22 15:41 UTC.
Position N 37°49' E 023°47'.

; draft 2.5 m.

Type: Other ship. MMSI: 248882000.

Date/timePositionNaut miles runAvg speedWind from/ knotsBaromVisibWave heightAir tempDewpointWater temp
2017-Oct-22 14:39N 37°49' E 023°47'0 0.0
2017-Oct-22 14:09N 37°48' E 023°47'0 0.1
2017-Oct-22 13:57N 37°49' E 023°47'0 0.0
2017-Oct-22 13:09N 37°48' E 023°47'0 0.0
2017-Oct-22 13:00N 37°48' E 023°47'0 0.0
2017-Oct-22 12:09N 37°48' E 023°47'0 0.0
2017-Oct-22 11:57N 37°48' E 023°47'0 0.0
2017-Oct-22 10:57N 37°48' E 023°47'0 0.0
2017-Oct-22 09:54N 37°48' E 023°47'0 0.0
2017-Oct-22 09:30N 37°48' E 023°47'0 0.0
2017-Oct-22 09:00N 37°48' E 023°47'0 0.0
2017-Oct-22 08:09N 37°48' E 023°47'0 0.0
2017-Oct-22 06:45N 37°48' E 023°47'0 0.0
2017-Oct-22 06:21N 37°48' E 023°47'0 0.0
2017-Oct-22 05:54N 37°48' E 023°47'0 0.0
2017-Oct-22 05:15N 37°48' E 023°47'0 0.0
2017-Oct-22 04:57N 37°48' E 023°47'0 0.0
2017-Oct-22 04:15N 37°48' E 023°47'0 0.0
2017-Oct-22 04:00N 37°48' E 023°47'0 0.0
2017-Oct-22 03:27N 37°48' E 023°47'0 0.0
2017-Oct-22 02:45N 37°48' E 023°47'0 0.0
2017-Oct-22 02:21N 37°48' E 023°47'0 0.0
2017-Oct-22 01:51N 37°48' E 023°47'0 0.0
2017-Oct-22 01:30N 37°48' E 023°47'0 0.0
2017-Oct-21 17:18N 37°48' E 023°47'0 0.0
2017-Oct-21 16:54N 37°48' E 023°47'0 0.0
2017-Oct-21 16:24N 37°48' E 023°47'0 0.0
2017-Oct-21 15:42N 37°48' E 023°47'0 0.0
2017-Oct-21 15:12N 37°48' E 023°47'0 0.0
2017-Oct-21 14:42N 37°48' E 023°47'0 0.0
2017-Oct-21 14:27N 37°48' E 023°47'0 0.0
2017-Oct-21 13:27N 37°48' E 023°47'0 0.0
2017-Oct-21 12:57N 37°48' E 023°47'0 0.0
2017-Oct-21 12:27N 37°48' E 023°47'0 0.0
2017-Oct-21 11:45N 37°48' E 023°47'0 0.0
2017-Oct-21 10:39N 37°48' E 023°47'0 0.0
2017-Oct-21 10:15N 37°48' E 023°47'0 0.0
2017-Oct-21 08:06N 37°48' E 023°47'0 0.0
2017-Oct-21 06:30N 37°48' E 023°47'0 0.0
2017-Oct-21 06:00N 37°48' E 023°47'0 0.0
2017-Oct-21 05:15N 37°48' E 023°47'0 0.0
2017-Oct-21 04:06N 37°48' E 023°47'0 0.0
2017-Oct-21 04:00N 37°48' E 023°47'0 0.0
2017-Oct-21 03:15N 37°48' E 023°47'0 0.0
2017-Oct-21 03:00N 37°48' E 023°47'0 0.0
2017-Oct-21 02:27N 37°48' E 023°47'0 0.0
2017-Oct-21 01:57N 37°48' E 023°47'0 0.0
2017-Oct-21 00:54N 37°48' E 023°47'0 0.0
2017-Oct-21 00:30N 37°48' E 023°47'0 0.0
2017-Oct-20 21:27N 37°48' E 023°47'0 0.0
2017-Oct-20 19:00N 37°48' E 023°47'0 0.0
2017-Oct-20 17:51N 37°48' E 023°47'0 0.0
2017-Oct-20 17:27N 37°48' E 023°47'0 0.0
2017-Oct-20 16:12N 37°49' E 023°47'0 0.0
2017-Oct-20 15:48N 37°49' E 023°47'0 0.0
2017-Oct-20 15:30N 37°49' E 023°47'0 0.0
2017-Oct-20 14:51N 37°49' E 023°47'0 0.0
2017-Oct-20 13:57N 37°49' E 023°47'0 0.0
2017-Oct-20 11:52N 37°48' E 023°47'2 4.6
2017-Oct-20 11:30N 37°47' E 023°45'4 8.8
2017-Oct-20 11:01N 37°45' E 023°41'4 8.9
2017-Oct-20 10:31N 37°43' E 023°36'7 7.9
2017-Oct-20 09:37N 37°41' E 023°27'1 7.7
2017-Oct-20 09:31N 37°42' E 023°27'1 0.1
2017-Oct-19 15:44N 37°43' E 023°27'2 7.2
2017-Oct-19 15:31N 37°44' E 023°25'1 1.0
2017-Oct-19 14:57N 37°44' E 023°26'0 0.0
2017-Oct-19 14:27N 37°44' E 023°26'0 0.0
2017-Oct-19 13:54N 37°44' E 023°26'0 0.0
2017-Oct-19 13:24N 37°44' E 023°26'0 0.1
2017-Oct-19 12:59N 37°44' E 023°26'3 5.0
2017-Oct-19 12:27N 37°42' E 023°27'3 6.9
2017-Oct-19 11:58N 37°41' E 023°31'4 8.2
2017-Oct-19 11:30N 37°42' E 023°35'4 8.4
2017-Oct-19 11:00N 37°45' E 023°39'4 8.4
2017-Oct-19 10:30N 37°46' E 023°44'3 5.3
2017-Oct-19 10:00N 37°48' E 023°47'  
2017-Oct-14 15:50N 37°48' E 023°47'0 0.0
2017-Oct-14 12:26N 37°48' E 023°47'0 0.1
2017-Oct-14 11:56N 37°48' E 023°47'0 0.0
2017-Oct-14 11:08N 37°48' E 023°47'0 0.0
2017-Oct-14 10:02N 37°48' E 023°47'0 0.0
2017-Oct-13 16:03N 37°48' E 023°47'0 1.7
2017-Oct-13 16:00N 37°48' E 023°47'0 0.0
2017-Oct-13 15:13N 37°48' E 023°47'0 0.0
2017-Oct-13 13:40N 37°48' E 023°47'0 0.0
2017-Oct-13 13:25N 37°48' E 023°47'0 0.0
2017-Oct-13 12:07N 37°48' E 023°47'0 0.1
2017-Oct-13 11:55N 37°48' E 023°47'0 0.0
2017-Oct-13 10:43N 37°48' E 023°47'0 0.0
2017-Oct-13 10:28N 37°48' E 023°47'0 0.0
2017-Oct-13 08:43N 37°48' E 023°47'0 0.0
2017-Oct-13 08:28N 37°48' E 023°47'0 0.0
2017-Oct-13 07:58N 37°48' E 023°47'0 0.0
2017-Oct-13 06:28N 37°48' E 023°47'0 0.0
2017-Oct-13 05:46N 37°48' E 023°47'0 0.0
2017-Oct-13 05:22N 37°48' E 023°47'0 0.0
2017-Oct-13 04:58N 37°48' E 023°47'0 0.0
2017-Oct-13 04:22N 37°48' E 023°47'0 0.0
2017-Oct-13 03:34N 37°48' E 023°47'0 0.0
2017-Oct-13 03:28N 37°48' E 023°47'0 0.0
2017-Oct-13 02:28N 37°48' E 023°47'0 0.0
2017-Oct-13 01:49N 37°48' E 023°47'0 0.0
2017-Oct-13 01:28N 37°48' E 023°47'0 0.0
2017-Oct-13 00:49N 37°48' E 023°47'0 0.0
2017-Oct-12 23:49N 37°48' E 023°47'0 0.0
2017-Oct-12 23:28N 37°48' E 023°47'0 0.0
2017-Oct-12 21:34N 37°48' E 023°47'0 0.0
2017-Oct-12 19:07N 37°48' E 023°47'0 0.0
2017-Oct-12 18:58N 37°48' E 023°47'0 0.0
2017-Oct-12 17:37N 37°48' E 023°47'0 0.0
2017-Oct-12 17:25N 37°48' E 023°47'0 0.0
2017-Oct-12 15:49N 37°48' E 023°47'  

Dump ship's entire track history